createdAt,value
2024-01-22T00:00:02.310Z,6.13
2024-01-22T00:02:28.982Z,6.75
2024-01-22T00:04:55.770Z,6.13
2024-01-22T00:07:22.284Z,6.45
2024-01-22T00:09:48.791Z,5.82
2024-01-22T00:12:15.721Z,6.07
2024-01-22T00:14:42.297Z,5.68
2024-01-22T00:17:08.747Z,5.63
2024-01-22T00:19:35.347Z,5.88
2024-01-22T00:22:01.866Z,6.30
2024-01-22T00:24:28.303Z,6.80
2024-01-22T00:26:54.833Z,6.00
2024-01-22T00:29:21.285Z,6.38
2024-01-22T00:31:47.743Z,6.28
2024-01-22T00:34:14.284Z,6.13
2024-01-22T00:36:40.819Z,6.88
2024-01-22T00:39:07.375Z,7.75
2024-01-22T00:41:33.952Z,7.80
2024-01-22T00:44:00.476Z,7.55
2024-01-22T00:46:28.440Z,6.50
2024-01-22T00:48:55.011Z,6.28
2024-01-22T00:51:21.580Z,6.90
2024-01-22T00:53:48.076Z,6.32
2024-01-22T00:56:15.060Z,6.90
2024-01-22T00:58:41.582Z,6.32
2024-01-22T01:01:09.914Z,6.40
2024-01-22T01:03:36.878Z,6.70
2024-01-22T01:06:03.448Z,7.20
2024-01-22T01:08:31.283Z,6.88
2024-01-22T01:10:57.936Z,8.18
2024-01-22T01:13:24.462Z,9.32
2024-01-22T01:15:50.915Z,11.25
2024-01-22T01:18:17.530Z,11.93
2024-01-22T01:20:44.348Z,11.07
2024-01-22T01:23:10.800Z,10.57
2024-01-22T01:25:38.270Z,8.85
2024-01-22T01:28:04.960Z,8.65
2024-01-22T01:30:31.437Z,8.15
2024-01-22T01:32:58.100Z,6.68
2024-01-22T01:35:24.701Z,7.00
2024-01-22T01:37:51.166Z,5.90
2024-01-22T01:40:17.630Z,5.47
2024-01-22T01:42:47.158Z,5.55
2024-01-22T01:45:17.167Z,5.07
2024-01-22T01:47:48.467Z,5.03
2024-01-22T01:50:15.654Z,4.88
2024-01-22T01:52:43.291Z,4.80
2024-01-22T01:55:10.040Z,4.60
2024-01-22T01:57:37.848Z,4.13
2024-01-22T02:00:07.409Z,4.13
2024-01-22T02:02:35.056Z,3.80
2024-01-22T02:05:03.122Z,3.78
2024-01-22T02:07:29.587Z,4.07
2024-01-22T02:09:56.150Z,4.00
2024-01-22T02:12:22.744Z,3.85
2024-01-22T02:14:49.438Z,3.80
2024-01-22T02:17:16.657Z,4.20
2024-01-22T02:19:43.784Z,4.20
2024-01-22T02:22:11.487Z,3.95
2024-01-22T02:24:37.964Z,4.07
2024-01-22T02:27:05.009Z,3.60
2024-01-22T02:29:31.587Z,4.03
2024-01-22T02:31:58.225Z,3.90
2024-01-22T02:34:24.724Z,4.07
2024-01-22T02:36:51.329Z,4.13
2024-01-22T02:39:17.975Z,4.63
2024-01-22T02:41:44.747Z,4.57
2024-01-22T02:44:11.584Z,3.95
2024-01-22T02:46:38.191Z,4.00
2024-01-22T02:49:04.933Z,3.50
2024-01-22T02:51:31.633Z,3.35
2024-01-22T02:53:58.115Z,3.80
2024-01-22T02:56:25.852Z,3.80
2024-01-22T02:58:52.412Z,3.50
2024-01-22T03:01:18.938Z,3.90
2024-01-22T03:03:45.568Z,3.47
2024-01-22T03:06:12.144Z,3.63
2024-01-22T03:08:38.668Z,2.90
2024-01-22T03:11:05.770Z,3.72
2024-01-22T03:13:32.366Z,3.20
2024-01-22T03:15:58.878Z,3.25
2024-01-22T03:18:25.508Z,3.33
2024-01-22T03:20:52.149Z,4.20
2024-01-22T03:23:18.748Z,3.72
2024-01-22T03:25:45.223Z,3.88
2024-01-22T03:28:12.551Z,3.63
2024-01-22T03:30:39.058Z,3.92
2024-01-22T03:33:05.944Z,3.50
2024-01-22T03:35:32.497Z,3.88
2024-01-22T03:37:58.966Z,3.55
2024-01-22T03:40:25.517Z,4.40
2024-01-22T03:42:51.990Z,3.95
2024-01-22T03:45:18.459Z,3.60
2024-01-22T03:47:45.098Z,3.80
2024-01-22T03:50:12.125Z,3.30
2024-01-22T03:52:38.677Z,3.55
2024-01-22T03:55:05.584Z,3.60
2024-01-22T03:57:32.116Z,3.60
2024-01-22T04:00:00.027Z,4.05
2024-01-22T04:02:26.659Z,3.58
2024-01-22T04:04:53.864Z,3.83
2024-01-22T04:07:20.397Z,4.88
2024-01-22T04:09:46.854Z,6.07
2024-01-22T04:12:13.399Z,6.30
2024-01-22T04:14:40.059Z,3.70
2024-01-22T04:17:06.606Z,3.70
2024-01-22T04:19:33.048Z,3.47
2024-01-22T04:21:59.599Z,3.53
2024-01-22T04:24:26.184Z,3.88
2024-01-22T04:26:53.129Z,3.67
2024-01-22T04:29:19.581Z,3.53
2024-01-22T04:31:46.087Z,3.60
2024-01-22T04:34:12.983Z,3.90
2024-01-22T04:36:39.893Z,3.50
2024-01-22T04:39:06.779Z,3.17
2024-01-22T04:41:33.268Z,3.53
2024-01-22T04:43:59.753Z,3.45
2024-01-22T04:46:26.230Z,3.90
2024-01-22T04:48:52.870Z,3.38
2024-01-22T04:51:19.420Z,3.58
2024-01-22T04:53:46.296Z,3.47
2024-01-22T04:56:12.816Z,3.80
2024-01-22T04:58:39.504Z,3.30
2024-01-22T05:01:06.070Z,3.30
2024-01-22T05:03:32.839Z,3.30
2024-01-22T05:06:00.565Z,3.60
2024-01-22T05:08:27.119Z,3.30
2024-01-22T05:10:53.575Z,3.38
2024-01-22T05:13:20.101Z,3.65
2024-01-22T05:15:46.654Z,3.90
2024-01-22T05:18:13.240Z,3.95
2024-01-22T05:20:40.372Z,3.88
2024-01-22T05:23:06.926Z,3.63
2024-01-22T05:25:33.417Z,3.60
2024-01-22T05:27:59.946Z,3.88
2024-01-22T05:30:26.528Z,3.75
2024-01-22T05:32:53.668Z,3.80
2024-01-22T05:35:20.293Z,3.80
2024-01-22T05:37:50.503Z,4.25
2024-01-22T05:40:18.263Z,4.60
2024-01-22T05:42:47.221Z,4.50
2024-01-22T05:45:14.139Z,5.15
2024-01-22T05:47:40.867Z,5.05
2024-01-22T05:50:07.749Z,5.10
2024-01-22T05:52:34.202Z,5.25
2024-01-22T05:55:01.384Z,5.60
2024-01-22T05:57:27.955Z,4.95
2024-01-22T05:59:55.658Z,6.47
2024-01-22T06:02:22.139Z,5.60
2024-01-22T06:04:48.752Z,4.88
2024-01-22T06:07:15.482Z,5.05
2024-01-22T06:09:42.010Z,5.47
2024-01-22T06:12:08.501Z,8.85
2024-01-22T06:14:34.985Z,7.13
2024-01-22T06:17:01.479Z,6.85
2024-01-22T06:19:28.087Z,6.97
2024-01-22T06:21:54.614Z,5.20
2024-01-22T06:24:21.170Z,5.45
2024-01-22T06:26:47.768Z,5.18
2024-01-22T06:29:15.320Z,4.95
2024-01-22T06:31:42.766Z,6.07
2024-01-22T06:34:09.585Z,7.13
2024-01-22T06:36:36.174Z,5.97
2024-01-22T06:39:02.725Z,7.55
2024-01-22T06:41:29.266Z,7.80
2024-01-22T06:43:55.889Z,6.55
2024-01-22T06:46:23.055Z,6.13
2024-01-22T06:48:49.652Z,6.03
2024-01-22T06:51:24.254Z,5.88
2024-01-22T06:53:57.766Z,7.38
2024-01-22T06:56:24.275Z,6.90
2024-01-22T06:58:50.808Z,6.40
2024-01-22T07:01:17.385Z,6.35
2024-01-22T07:03:43.978Z,5.63
2024-01-22T07:06:11.061Z,5.13
2024-01-22T07:08:37.624Z,5.72
2024-01-22T07:11:04.204Z,5.78
2024-01-22T07:13:30.754Z,5.75
2024-01-22T07:15:57.190Z,5.43
2024-01-22T07:18:23.941Z,5.20
2024-01-22T07:20:50.650Z,5.53
2024-01-22T07:23:18.067Z,4.80
2024-01-22T07:25:44.571Z,4.78
2024-01-22T07:28:11.441Z,5.07
2024-01-22T07:30:38.585Z,4.82
2024-01-22T07:33:06.718Z,4.57
2024-01-22T07:35:33.327Z,4.88
2024-01-22T07:37:59.817Z,5.07
2024-01-22T07:40:26.295Z,4.30
2024-01-22T07:42:52.816Z,4.07
2024-01-22T07:45:19.391Z,4.55
2024-01-22T07:47:46.121Z,4.60
2024-01-22T07:50:15.644Z,4.93
2024-01-22T07:52:46.849Z,5.00
2024-01-22T07:55:18.178Z,4.88
2024-01-22T07:57:44.946Z,4.30
2024-01-22T08:00:13.056Z,4.45
2024-01-22T08:02:42.827Z,4.47
2024-01-22T08:05:14.558Z,4.30
2024-01-22T08:07:42.319Z,4.20
2024-01-22T08:10:09.174Z,4.05
2024-01-22T08:12:35.635Z,3.78
2024-01-22T08:15:02.166Z,4.10
2024-01-22T08:17:28.753Z,4.30
2024-01-22T08:19:55.360Z,3.88
2024-01-22T08:22:22.320Z,8.63
2024-01-22T08:24:49.650Z,3.75
2024-01-22T08:27:16.318Z,4.68
2024-01-22T08:29:42.877Z,4.50
2024-01-22T08:32:10.343Z,4.05
2024-01-22T08:34:39.757Z,4.57
2024-01-22T08:37:10.131Z,4.20
2024-01-22T08:39:37.255Z,4.68
2024-01-22T08:42:04.214Z,4.13
2024-01-22T08:44:30.750Z,4.55
2024-01-22T08:46:58.003Z,4.30
2024-01-22T08:49:24.630Z,4.20
2024-01-22T08:51:51.132Z,4.38
2024-01-22T08:54:17.774Z,5.72
2024-01-22T08:56:44.491Z,4.72
2024-01-22T08:59:13.326Z,4.47
2024-01-22T09:01:39.987Z,4.43
2024-01-22T09:04:07.657Z,4.18
2024-01-22T09:06:34.224Z,4.32
2024-01-22T09:09:00.777Z,4.22
2024-01-22T09:11:27.828Z,4.43
2024-01-22T09:13:54.302Z,3.67
2024-01-22T09:16:22.296Z,4.10
2024-01-22T09:18:49.894Z,3.95
2024-01-22T09:21:16.954Z,3.88
2024-01-22T09:23:43.530Z,4.00
2024-01-22T09:26:10.212Z,4.28
2024-01-22T09:28:37.248Z,4.05
2024-01-22T09:31:04.192Z,4.80
2024-01-22T09:33:30.839Z,4.70
2024-01-22T09:35:57.596Z,4.10
2024-01-22T09:38:24.309Z,4.93
2024-01-22T09:40:51.962Z,4.40
2024-01-22T09:43:19.511Z,4.93
2024-01-22T09:45:47.747Z,4.72
2024-01-22T09:48:14.864Z,5.22
2024-01-22T09:50:41.632Z,4.85
2024-01-22T09:53:12.056Z,4.65
2024-01-22T09:55:39.904Z,5.32
2024-01-22T09:58:08.962Z,5.20
2024-01-22T10:00:35.953Z,4.60
2024-01-22T10:03:03.997Z,4.43
2024-01-22T10:05:31.349Z,4.50
2024-01-22T10:07:58.056Z,4.70
2024-01-22T10:10:25.257Z,4.57
2024-01-22T10:13:01.223Z,4.97
2024-01-22T10:15:30.917Z,5.05
2024-01-22T10:18:20.063Z,4.97
2024-01-22T10:20:47.772Z,4.57
2024-01-22T10:23:15.694Z,4.82
2024-01-22T10:25:42.318Z,4.35
2024-01-22T10:28:10.060Z,3.83
2024-01-22T10:30:39.330Z,3.33
2024-01-22T10:33:24.448Z,3.15
2024-01-22T10:35:51.940Z,3.33
2024-01-22T10:38:20.799Z,3.20
2024-01-22T10:40:47.849Z,3.17
2024-01-22T10:43:28.548Z,3.40
2024-01-22T10:45:57.562Z,3.00
2024-01-22T10:48:37.086Z,3.08
2024-01-22T10:51:08.278Z,2.35
2024-01-22T10:53:35.733Z,2.97
2024-01-22T10:56:05.292Z,2.90
2024-01-22T10:58:39.636Z,3.47
2024-01-22T11:01:11.069Z,3.35
2024-01-22T11:03:41.756Z,3.50
2024-01-22T11:06:10.482Z,3.28
2024-01-22T11:08:38.299Z,3.38
2024-01-22T11:11:05.879Z,3.17
2024-01-22T11:13:32.551Z,3.17
2024-01-22T11:15:59.334Z,3.88
2024-01-22T11:18:26.391Z,3.95
2024-01-22T11:21:12.022Z,3.88
2024-01-22T11:23:38.531Z,4.00
2024-01-22T11:26:09.616Z,4.18
2024-01-22T11:28:36.278Z,4.35
2024-01-22T11:31:03.389Z,4.35
2024-01-22T11:33:30.586Z,5.28
2024-01-22T11:35:57.238Z,4.28
2024-01-22T11:38:57.350Z,4.65
2024-01-22T11:41:34.463Z,5.43
2024-01-22T11:44:01.991Z,5.22
2024-01-22T11:46:28.876Z,4.75
2024-01-22T11:48:59.340Z,4.60
2024-01-22T11:51:26.986Z,5.13
2024-01-22T11:53:55.426Z,4.05
2024-01-22T11:56:23.806Z,4.20
2024-01-22T11:59:02.341Z,4.47
2024-01-22T12:01:29.063Z,4.85
2024-01-22T12:03:56.553Z,4.57
2024-01-22T12:06:26.265Z,4.40
2024-01-22T12:08:58.517Z,4.10
2024-01-22T12:11:25.202Z,4.55
2024-01-22T12:13:52.297Z,4.70
2024-01-22T12:16:19.511Z,4.97
2024-01-22T12:18:46.480Z,5.20
2024-01-22T12:21:13.310Z,5.28
2024-01-22T12:23:40.890Z,5.60
2024-01-22T12:26:38.346Z,5.45
2024-01-22T12:29:05.423Z,7.82
2024-01-22T12:31:32.224Z,7.50
2024-01-22T12:34:14.541Z,6.63
2024-01-22T12:36:41.592Z,8.50
2024-01-22T12:39:08.940Z,8.27
2024-01-22T12:41:36.269Z,7.88
2024-01-22T12:44:03.613Z,8.00
2024-01-22T12:46:32.352Z,7.03
2024-01-22T12:48:59.559Z,6.88
2024-01-22T12:51:27.731Z,8.13
2024-01-22T12:53:55.041Z,6.40
2024-01-22T12:56:22.156Z,5.82
2024-01-22T12:58:49.260Z,6.72
2024-01-22T13:01:15.823Z,6.82
2024-01-22T13:03:42.631Z,8.82
2024-01-22T13:06:09.747Z,7.15
2024-01-22T13:08:36.838Z,7.18
2024-01-22T13:11:04.071Z,5.30
2024-01-22T13:13:31.590Z,4.78
2024-01-22T13:16:11.790Z,4.90
2024-01-22T13:18:43.054Z,4.47
2024-01-22T13:21:10.548Z,4.18
2024-01-22T13:23:37.320Z,4.30
2024-01-22T13:26:04.467Z,3.05
2024-01-22T13:28:31.682Z,3.88
2024-01-22T13:30:58.742Z,4.20
2024-01-22T13:33:25.490Z,4.57
2024-01-22T13:35:52.557Z,4.57
2024-01-22T13:38:19.076Z,4.47
2024-01-22T13:40:45.653Z,4.47
2024-01-22T13:43:12.716Z,4.85
2024-01-22T13:45:39.364Z,4.43
2024-01-22T13:48:06.304Z,4.97
2024-01-22T13:50:32.990Z,5.43
2024-01-22T13:53:03.634Z,4.13
2024-01-22T13:55:33.130Z,5.20
2024-01-22T13:57:59.702Z,5.80
2024-01-22T14:00:26.893Z,5.28
2024-01-22T14:02:53.515Z,5.03
2024-01-22T14:05:20.220Z,5.38
2024-01-22T14:07:48.406Z,5.20
2024-01-22T14:10:15.742Z,5.40
2024-01-22T14:12:42.897Z,4.28
2024-01-22T14:15:11.189Z,5.40
2024-01-22T14:17:37.988Z,5.22
2024-01-22T14:20:08.235Z,5.07
2024-01-22T14:22:35.602Z,7.15
2024-01-22T14:25:02.415Z,5.57
2024-01-22T14:27:29.686Z,4.80
2024-01-22T14:29:56.573Z,4.95
2024-01-22T14:32:25.706Z,3.90
2024-01-22T14:34:52.678Z,5.38
2024-01-22T14:37:19.448Z,4.20
2024-01-22T14:39:46.071Z,5.15
2024-01-22T14:42:12.588Z,5.00
2024-01-22T14:44:39.101Z,4.40
2024-01-22T14:47:06.051Z,5.45
2024-01-22T14:49:33.356Z,5.50
2024-01-22T14:51:59.853Z,5.45
2024-01-22T14:54:26.466Z,5.25
2024-01-22T14:56:54.371Z,5.32
2024-01-22T14:59:20.908Z,5.13
2024-01-22T15:01:47.646Z,5.22
2024-01-22T15:04:14.339Z,5.60
2024-01-22T15:06:41.006Z,5.57
2024-01-22T15:09:07.673Z,5.00
2024-01-22T15:11:34.272Z,5.43
2024-01-22T15:14:00.793Z,5.82
2024-01-22T15:16:29.074Z,5.13
2024-01-22T15:18:56.996Z,5.40
2024-01-22T15:21:23.923Z,5.50
2024-01-22T15:23:50.729Z,5.43
2024-01-22T15:26:17.697Z,5.60
2024-01-22T15:28:45.105Z,5.45
2024-01-22T15:31:12.866Z,5.43
2024-01-22T15:33:40.859Z,4.80
2024-01-22T15:36:09.992Z,5.35
2024-01-22T15:38:36.721Z,5.53
2024-01-22T15:41:04.758Z,5.57
2024-01-22T15:43:31.570Z,6.13
2024-01-22T15:45:58.246Z,5.68
2024-01-22T15:48:24.939Z,5.65
2024-01-22T15:50:51.681Z,6.63
2024-01-22T15:53:18.165Z,5.93
2024-01-22T15:55:44.617Z,6.35
2024-01-22T15:58:11.076Z,6.45
2024-01-22T16:00:37.810Z,6.38
2024-01-22T16:03:04.435Z,6.05
2024-01-22T16:05:31.443Z,5.18
2024-01-22T16:07:58.520Z,5.53
2024-01-22T16:10:25.298Z,6.07
2024-01-22T16:12:52.246Z,5.50
2024-01-22T16:15:18.997Z,4.82
2024-01-22T16:17:46.289Z,5.07
2024-01-22T16:20:14.367Z,5.65
2024-01-22T16:22:41.574Z,5.28
2024-01-22T16:25:08.666Z,4.72
2024-01-22T16:27:35.265Z,4.95
2024-01-22T16:30:02.150Z,5.55
2024-01-22T16:32:29.280Z,5.13
2024-01-22T16:34:56.179Z,5.47
2024-01-22T16:37:22.939Z,4.90
2024-01-22T16:39:50.969Z,4.93
2024-01-22T16:42:17.549Z,5.60
2024-01-22T16:44:44.215Z,5.22
2024-01-22T16:47:11.337Z,5.88
2024-01-22T16:49:38.108Z,5.05
2024-01-22T16:52:06.034Z,5.47
2024-01-22T16:54:33.064Z,4.55
2024-01-22T16:56:59.781Z,5.03
2024-01-22T16:59:26.376Z,5.20
2024-01-22T17:01:57.534Z,5.72
2024-01-22T17:04:27.987Z,5.32
2024-01-22T17:07:03.876Z,5.15
2024-01-22T17:09:30.791Z,5.13
2024-01-22T17:11:57.683Z,5.35
2024-01-22T17:14:24.172Z,7.13
2024-01-22T17:16:50.894Z,5.55
2024-01-22T17:19:17.711Z,7.28
2024-01-22T17:21:44.629Z,4.75
2024-01-22T17:24:11.549Z,5.55
2024-01-22T17:26:38.173Z,5.32
2024-01-22T17:29:04.628Z,5.20
2024-01-22T17:31:31.260Z,4.95
2024-01-22T17:33:58.177Z,4.38
2024-01-22T17:36:25.135Z,4.55
2024-01-22T17:38:51.822Z,4.78
2024-01-22T17:41:18.525Z,5.18
2024-01-22T17:43:45.080Z,5.22
2024-01-22T17:46:11.923Z,4.40
2024-01-22T17:48:38.683Z,5.53
2024-01-22T17:51:05.645Z,4.72
2024-01-22T17:53:32.265Z,5.28
2024-01-22T17:55:59.507Z,5.70
2024-01-22T17:58:26.405Z,6.45
2024-01-22T18:00:53.827Z,6.35
2024-01-22T18:03:20.442Z,6.88
2024-01-22T18:05:46.992Z,6.63
2024-01-22T18:08:14.489Z,6.80
2024-01-22T18:10:40.980Z,6.13
2024-01-22T18:13:07.508Z,7.20
2024-01-22T18:15:34.153Z,6.53
2024-01-22T18:18:01.268Z,6.45
2024-01-22T18:20:28.080Z,6.47
2024-01-22T18:22:54.711Z,6.53
2024-01-22T18:25:21.319Z,6.85
2024-01-22T18:27:47.911Z,7.25
2024-01-22T18:30:15.534Z,7.53
2024-01-22T18:32:42.094Z,7.25
2024-01-22T18:35:08.858Z,7.50
2024-01-22T18:37:35.544Z,6.93
2024-01-22T18:40:05.822Z,7.03
2024-01-22T18:42:32.840Z,7.15
2024-01-22T18:44:59.642Z,7.05
2024-01-22T18:47:28.048Z,7.65
2024-01-22T18:49:54.609Z,8.68
2024-01-22T18:52:21.475Z,6.53
2024-01-22T18:54:47.956Z,7.80
2024-01-22T18:57:14.452Z,7.75
2024-01-22T18:59:41.009Z,7.18
2024-01-22T19:02:08.013Z,7.53
2024-01-22T19:04:34.629Z,7.95
2024-01-22T19:07:01.163Z,7.50
2024-01-22T19:09:27.900Z,7.47
2024-01-22T19:11:54.537Z,7.75
2024-01-22T19:14:21.060Z,6.03
2024-01-22T19:16:48.997Z,6.22
2024-01-22T19:19:15.719Z,6.32
2024-01-22T19:21:42.308Z,6.43
2024-01-22T19:24:08.908Z,7.68
2024-01-22T19:26:35.403Z,7.40
2024-01-22T19:29:01.826Z,8.18
2024-01-22T19:31:28.261Z,8.55
2024-01-22T19:33:54.817Z,7.90
2024-01-22T19:36:22.701Z,7.45
2024-01-22T19:38:49.316Z,7.45
2024-01-22T19:41:15.841Z,8.07
2024-01-22T19:43:43.946Z,8.02
2024-01-22T19:46:14.649Z,7.10
2024-01-22T19:48:42.209Z,5.45
2024-01-22T19:51:08.799Z,7.45
2024-01-22T19:53:35.312Z,6.75
2024-01-22T19:56:02.138Z,7.05
2024-01-22T19:58:28.704Z,6.30
2024-01-22T20:00:56.071Z,7.45
2024-01-22T20:03:22.611Z,6.00
2024-01-22T20:05:49.411Z,6.60
2024-01-22T20:08:16.002Z,8.98
2024-01-22T20:10:42.866Z,6.00
2024-01-22T20:13:09.387Z,7.47
2024-01-22T20:15:36.300Z,8.57
2024-01-22T20:18:03.548Z,7.68
2024-01-22T20:20:30.249Z,8.43
2024-01-22T20:22:57.005Z,7.80
2024-01-22T20:25:24.148Z,8.57
2024-01-22T20:27:50.672Z,8.75
2024-01-22T20:30:17.205Z,7.80
2024-01-22T20:32:43.758Z,7.82
2024-01-22T20:35:10.320Z,8.25
2024-01-22T20:37:38.085Z,9.10
2024-01-22T20:40:04.821Z,8.27
2024-01-22T20:42:31.496Z,8.30
2024-01-22T20:44:58.182Z,8.40
2024-01-22T20:47:24.840Z,8.20
2024-01-22T20:49:51.471Z,8.00
2024-01-22T20:52:18.147Z,8.23
2024-01-22T20:54:44.782Z,8.25
2024-01-22T20:57:11.519Z,7.85
2024-01-22T20:59:38.176Z,5.07
2024-01-22T21:02:04.623Z,7.18
2024-01-22T21:04:32.153Z,6.38
2024-01-22T21:06:58.823Z,4.32
2024-01-22T21:09:27.078Z,4.57
2024-01-22T21:11:53.825Z,5.88
2024-01-22T21:14:20.545Z,5.22
2024-01-22T21:16:47.875Z,5.40
2024-01-22T21:19:15.688Z,6.35
2024-01-22T21:21:42.984Z,6.63
2024-01-22T21:24:09.748Z,3.58
2024-01-22T21:26:36.697Z,4.32
2024-01-22T21:29:04.810Z,5.43
2024-01-22T21:31:31.423Z,5.35
2024-01-22T21:33:58.214Z,5.40
2024-01-22T21:36:26.132Z,6.10
2024-01-22T21:38:52.860Z,5.35
2024-01-22T21:41:19.335Z,5.10
2024-01-22T21:43:45.824Z,4.80
2024-01-22T21:46:12.313Z,5.63
2024-01-22T21:48:38.901Z,4.78
2024-01-22T21:51:06.382Z,5.20
2024-01-22T21:53:33.224Z,5.55
2024-01-22T21:55:59.884Z,5.65
2024-01-22T21:58:26.591Z,6.03
2024-01-22T22:00:54.062Z,5.22
2024-01-22T22:03:21.254Z,6.35
2024-01-22T22:05:48.789Z,5.80
2024-01-22T22:08:15.675Z,6.13
2024-01-22T22:10:43.234Z,6.53
2024-01-22T22:13:10.377Z,6.57
2024-01-22T22:15:37.017Z,6.50
2024-01-22T22:18:03.934Z,4.75
2024-01-22T22:20:32.254Z,6.32
2024-01-22T22:22:58.932Z,6.28
2024-01-22T22:25:25.399Z,6.50
2024-01-22T22:27:51.880Z,6.22
2024-01-22T22:30:18.560Z,6.45
2024-01-22T22:32:45.243Z,6.63
2024-01-22T22:35:11.965Z,6.00
2024-01-22T22:37:38.722Z,5.75
2024-01-22T22:40:05.586Z,5.93
2024-01-22T22:42:32.209Z,5.05
2024-01-22T22:44:58.946Z,5.80
2024-01-22T22:47:25.678Z,6.35
2024-01-22T22:49:52.645Z,6.00
2024-01-22T22:52:19.205Z,5.80
2024-01-22T22:54:46.481Z,5.53
2024-01-22T22:57:13.295Z,5.82
2024-01-22T22:59:39.911Z,5.78
2024-01-22T23:02:06.440Z,4.90
2024-01-22T23:04:33.095Z,5.18
2024-01-22T23:06:59.652Z,5.28
2024-01-22T23:09:26.337Z,5.15
2024-01-22T23:11:54.774Z,5.60
2024-01-22T23:14:21.719Z,5.68
2024-01-22T23:16:48.181Z,5.75
2024-01-22T23:19:14.846Z,5.80
2024-01-22T23:21:41.417Z,5.70
2024-01-22T23:24:08.606Z,5.45
2024-01-22T23:26:35.458Z,5.05
2024-01-22T23:29:01.987Z,5.30
2024-01-22T23:31:28.508Z,5.82
2024-01-22T23:33:55.139Z,5.43
2024-01-22T23:36:22.972Z,5.80
2024-01-22T23:38:50.465Z,5.72
2024-01-22T23:41:17.304Z,5.78
2024-01-22T23:43:43.977Z,5.57
2024-01-22T23:46:10.648Z,5.57
2024-01-22T23:48:37.514Z,5.00
2024-01-22T23:51:04.659Z,5.45
2024-01-22T23:53:31.623Z,5.20
2024-01-22T23:55:58.287Z,5.72
2024-01-22T23:58:24.977Z,5.20
